sensor_id;sensor_type;location;lat;lon;timestamp;temperature;humidity
76239;SHT30;65043;48.392;-4.472;2023-01-19T00:00:19;7.96;62.82
76239;SHT30;65043;48.392;-4.472;2023-01-19T00:02:45;7.96;62.19
76239;SHT30;65043;48.392;-4.472;2023-01-19T00:05:12;7.95;62.46
76239;SHT30;65043;48.392;-4.472;2023-01-19T00:07:38;7.99;63.62
76239;SHT30;65043;48.392;-4.472;2023-01-19T00:10:04;8.02;63.46
76239;SHT30;65043;48.392;-4.472;2023-01-19T00:12:30;8.00;64.02
76239;SHT30;65043;48.392;-4.472;2023-01-19T00:14:55;8.00;64.12
76239;SHT30;65043;48.392;-4.472;2023-01-19T00:17:20;8.02;64.38
76239;SHT30;65043;48.392;-4.472;2023-01-19T00:19:46;8.00;64.00
76239;SHT30;65043;48.392;-4.472;2023-01-19T00:22:11;8.03;63.93
76239;SHT30;65043;48.392;-4.472;2023-01-19T00:24:36;8.07;63.83
76239;SHT30;65043;48.392;-4.472;2023-01-19T00:27:02;8.07;64.25
76239;SHT30;65043;48.392;-4.472;2023-01-19T00:29:28;8.06;63.88
76239;SHT30;65043;48.392;-4.472;2023-01-19T00:31:58;8.05;64.23
76239;SHT30;65043;48.392;-4.472;2023-01-19T00:34:24;8.06;64.01
76239;SHT30;65043;48.392;-4.472;2023-01-19T00:36:49;8.03;63.83
76239;SHT30;65043;48.392;-4.472;2023-01-19T00:39:15;8.05;64.03
76239;SHT30;65043;48.392;-4.472;2023-01-19T00:41:40;8.02;64.03
76239;SHT30;65043;48.392;-4.472;2023-01-19T00:44:24;8.00;64.32
76239;SHT30;65043;48.392;-4.472;2023-01-19T00:46:49;7.97;63.99
76239;SHT30;65043;48.392;-4.472;2023-01-19T00:49:15;7.96;64.15
76239;SHT30;65043;48.392;-4.472;2023-01-19T00:51:40;7.95;64.11
76239;SHT30;65043;48.392;-4.472;2023-01-19T00:54:05;7.93;64.14
76239;SHT30;65043;48.392;-4.472;2023-01-19T00:56:35;7.92;64.24
76239;SHT30;65043;48.392;-4.472;2023-01-19T00:59:00;7.87;64.38
76239;SHT30;65043;48.392;-4.472;2023-01-19T01:01:26;7.85;64.28
76239;SHT30;65043;48.392;-4.472;2023-01-19T01:03:51;7.82;64.31
76239;SHT30;65043;48.392;-4.472;2023-01-19T01:06:20;7.78;64.41
76239;SHT30;65043;48.392;-4.472;2023-01-19T01:08:46;7.78;64.77
76239;SHT30;65043;48.392;-4.472;2023-01-19T01:11:11;7.76;64.70
76239;SHT30;65043;48.392;-4.472;2023-01-19T01:13:37;7.74;64.90
76239;SHT30;65043;48.392;-4.472;2023-01-19T01:16:02;7.74;64.79
76239;SHT30;65043;48.392;-4.472;2023-01-19T01:18:28;7.74;64.90
76239;SHT30;65043;48.392;-4.472;2023-01-19T01:21:02;7.72;65.19
76239;SHT30;65043;48.392;-4.472;2023-01-19T01:23:28;7.71;65.28
76239;SHT30;65043;48.392;-4.472;2023-01-19T01:25:53;7.69;65.09
76239;SHT30;65043;48.392;-4.472;2023-01-19T01:28:19;7.68;64.88
76239;SHT30;65043;48.392;-4.472;2023-01-19T01:30:44;7.66;65.14
76239;SHT30;65043;48.392;-4.472;2023-01-19T01:33:10;7.66;65.31
76239;SHT30;65043;48.392;-4.472;2023-01-19T01:35:38;7.65;65.09
76239;SHT30;65043;48.392;-4.472;2023-01-19T01:38:04;7.64;65.28
76239;SHT30;65043;48.392;-4.472;2023-01-19T01:40:29;7.62;65.01
76239;SHT30;65043;48.392;-4.472;2023-01-19T01:42:54;7.58;65.50
76239;SHT30;65043;48.392;-4.472;2023-01-19T01:45:33;7.58;65.25
76239;SHT30;65043;48.392;-4.472;2023-01-19T01:48:05;7.59;65.10
76239;SHT30;65043;48.392;-4.472;2023-01-19T01:50:35;7.61;65.29
76239;SHT30;65043;48.392;-4.472;2023-01-19T01:53:09;7.59;65.24
76239;SHT30;65043;48.392;-4.472;2023-01-19T01:55:42;7.59;65.33
76239;SHT30;65043;48.392;-4.472;2023-01-19T01:58:10;7.59;65.30
76239;SHT30;65043;48.392;-4.472;2023-01-19T02:00:36;7.61;65.31
76239;SHT30;65043;48.392;-4.472;2023-01-19T02:03:24;7.58;65.25
76239;SHT30;65043;48.392;-4.472;2023-01-19T02:05:50;7.56;65.77
76239;SHT30;65043;48.392;-4.472;2023-01-19T02:08:27;7.56;65.77
76239;SHT30;65043;48.392;-4.472;2023-01-19T02:11:15;7.61;65.60
76239;SHT30;65043;48.392;-4.472;2023-01-19T02:13:59;7.62;65.72
76239;SHT30;65043;48.392;-4.472;2023-01-19T02:16:24;7.65;65.49
76239;SHT30;65043;48.392;-4.472;2023-01-19T02:18:50;7.61;65.31
76239;SHT30;65043;48.392;-4.472;2023-01-19T02:21:23;7.64;65.48
76239;SHT30;65043;48.392;-4.472;2023-01-19T02:23:54;7.61;65.51
76239;SHT30;65043;48.392;-4.472;2023-01-19T02:26:32;7.59;65.64
76239;SHT30;65043;48.392;-4.472;2023-01-19T02:29:00;7.62;65.65
76239;SHT30;65043;48.392;-4.472;2023-01-19T02:31:29;7.58;65.64
76239;SHT30;65043;48.392;-4.472;2023-01-19T02:33:55;7.59;65.85
76239;SHT30;65043;48.392;-4.472;2023-01-19T02:36:34;7.56;65.82
76239;SHT30;65043;48.392;-4.472;2023-01-19T02:39:03;7.54;65.90
76239;SHT30;65043;48.392;-4.472;2023-01-19T02:41:35;7.55;66.12
76239;SHT30;65043;48.392;-4.472;2023-01-19T02:44:03;7.55;66.19
76239;SHT30;65043;48.392;-4.472;2023-01-19T02:46:30;7.54;66.07
76239;SHT30;65043;48.392;-4.472;2023-01-19T02:48:59;7.51;66.11
76239;SHT30;65043;48.392;-4.472;2023-01-19T02:51:26;7.51;66.12
76239;SHT30;65043;48.392;-4.472;2023-01-19T02:53:59;7.52;66.20
76239;SHT30;65043;48.392;-4.472;2023-01-19T02:56:37;7.52;65.87
76239;SHT30;65043;48.392;-4.472;2023-01-19T03:02:16;7.52;65.89
76239;SHT30;65043;48.392;-4.472;2023-01-19T03:10:06;7.59;65.52
76239;SHT30;65043;48.392;-4.472;2023-01-19T03:15:18;7.59;65.58
76239;SHT30;65043;48.392;-4.472;2023-01-19T03:17:47;7.62;65.56
76239;SHT30;65043;48.392;-4.472;2023-01-19T03:20:15;7.62;65.42
76239;SHT30;65043;48.392;-4.472;2023-01-19T03:22:44;7.64;65.20
76239;SHT30;65043;48.392;-4.472;2023-01-19T03:25:14;7.64;65.06
76239;SHT30;65043;48.392;-4.472;2023-01-19T03:27:42;7.62;65.37
76239;SHT30;65043;48.392;-4.472;2023-01-19T03:30:16;7.65;65.58
76239;SHT30;65043;48.392;-4.472;2023-01-19T03:32:52;7.59;65.50
76239;SHT30;65043;48.392;-4.472;2023-01-19T03:35:21;7.59;65.63
76239;SHT30;65043;48.392;-4.472;2023-01-19T03:37:49;7.61;65.86
76239;SHT30;65043;48.392;-4.472;2023-01-19T03:40:15;7.56;66.05
76239;SHT30;65043;48.392;-4.472;2023-01-19T03:42:41;7.55;66.01
76239;SHT30;65043;48.392;-4.472;2023-01-19T03:45:11;7.54;65.83
76239;SHT30;65043;48.392;-4.472;2023-01-19T03:47:37;7.51;66.06
76239;SHT30;65043;48.392;-4.472;2023-01-19T03:50:08;7.51;66.27
76239;SHT30;65043;48.392;-4.472;2023-01-19T03:52:35;7.50;66.46
76239;SHT30;65043;48.392;-4.472;2023-01-19T03:55:03;7.50;66.53
76239;SHT30;65043;48.392;-4.472;2023-01-19T03:57:29;7.50;66.32
76239;SHT30;65043;48.392;-4.472;2023-01-19T03:59:55;7.50;66.12
76239;SHT30;65043;48.392;-4.472;2023-01-19T04:02:21;7.54;66.20
76239;SHT30;65043;48.392;-4.472;2023-01-19T04:04:47;7.52;66.17
76239;SHT30;65043;48.392;-4.472;2023-01-19T04:07:12;7.52;66.10
76239;SHT30;65043;48.392;-4.472;2023-01-19T04:09:37;7.54;66.04
76239;SHT30;65043;48.392;-4.472;2023-01-19T04:12:03;7.52;66.26
76239;SHT30;65043;48.392;-4.472;2023-01-19T04:14:29;7.52;66.36
76239;SHT30;65043;48.392;-4.472;2023-01-19T04:16:54;7.52;66.48
76239;SHT30;65043;48.392;-4.472;2023-01-19T04:19:19;7.52;66.12
76239;SHT30;65043;48.392;-4.472;2023-01-19T04:21:47;7.52;66.41
76239;SHT30;65043;48.392;-4.472;2023-01-19T04:24:15;7.54;66.53
76239;SHT30;65043;48.392;-4.472;2023-01-19T04:26:40;7.55;66.59
76239;SHT30;65043;48.392;-4.472;2023-01-19T04:29:05;7.51;66.73
76239;SHT30;65043;48.392;-4.472;2023-01-19T04:31:31;7.54;66.53
76239;SHT30;65043;48.392;-4.472;2023-01-19T04:33:57;7.52;66.24
76239;SHT30;65043;48.392;-4.472;2023-01-19T04:36:22;7.54;66.50
76239;SHT30;65043;48.392;-4.472;2023-01-19T04:38:47;7.56;66.53
76239;SHT30;65043;48.392;-4.472;2023-01-19T04:41:13;7.56;66.54
76239;SHT30;65043;48.392;-4.472;2023-01-19T04:43:39;7.56;66.77
76239;SHT30;65043;48.392;-4.472;2023-01-19T04:46:05;7.56;66.82
76239;SHT30;65043;48.392;-4.472;2023-01-19T04:48:31;7.58;66.75
76239;SHT30;65043;48.392;-4.472;2023-01-19T04:50:56;7.58;66.77
76239;SHT30;65043;48.392;-4.472;2023-01-19T04:53:22;7.62;66.72
76239;SHT30;65043;48.392;-4.472;2023-01-19T04:55:51;7.61;66.61
76239;SHT30;65043;48.392;-4.472;2023-01-19T04:58:17;7.59;66.56
76239;SHT30;65043;48.392;-4.472;2023-01-19T05:00:43;7.59;66.76
76239;SHT30;65043;48.392;-4.472;2023-01-19T05:03:08;7.59;67.00
76239;SHT30;65043;48.392;-4.472;2023-01-19T05:05:33;7.58;66.94
76239;SHT30;65043;48.392;-4.472;2023-01-19T05:07:59;7.58;67.28
76239;SHT30;65043;48.392;-4.472;2023-01-19T05:10:24;7.55;67.53
76239;SHT30;65043;48.392;-4.472;2023-01-19T05:12:50;7.55;67.59
76239;SHT30;65043;48.392;-4.472;2023-01-19T05:15:15;7.55;67.66
76239;SHT30;65043;48.392;-4.472;2023-01-19T05:17:41;7.54;67.78
76239;SHT30;65043;48.392;-4.472;2023-01-19T05:20:09;7.54;67.74
76239;SHT30;65043;48.392;-4.472;2023-01-19T05:22:34;7.54;67.75
76239;SHT30;65043;48.392;-4.472;2023-01-19T05:25:00;7.51;67.93
76239;SHT30;65043;48.392;-4.472;2023-01-19T05:27:26;7.51;68.17
76239;SHT30;65043;48.392;-4.472;2023-01-19T05:29:51;7.52;67.96
76239;SHT30;65043;48.392;-4.472;2023-01-19T05:32:16;7.52;68.11
76239;SHT30;65043;48.392;-4.472;2023-01-19T05:34:42;7.54;68.14
76239;SHT30;65043;48.392;-4.472;2023-01-19T05:37:07;7.52;68.21
76239;SHT30;65043;48.392;-4.472;2023-01-19T05:39:33;7.51;67.91
76239;SHT30;65043;48.392;-4.472;2023-01-19T05:41:58;7.52;67.96
76239;SHT30;65043;48.392;-4.472;2023-01-19T05:44:23;7.55;67.84
76239;SHT30;65043;48.392;-4.472;2023-01-19T05:46:49;7.55;67.87
76239;SHT30;65043;48.392;-4.472;2023-01-19T05:49:14;7.58;67.88
76239;SHT30;65043;48.392;-4.472;2023-01-19T05:51:40;7.56;68.04
76239;SHT30;65043;48.392;-4.472;2023-01-19T05:54:12;7.55;68.04
76239;SHT30;65043;48.392;-4.472;2023-01-19T05:56:37;7.58;68.20
76239;SHT30;65043;48.392;-4.472;2023-01-19T05:59:04;7.55;68.33
76239;SHT30;65043;48.392;-4.472;2023-01-19T06:01:29;7.55;68.21
76239;SHT30;65043;48.392;-4.472;2023-01-19T06:03:56;7.58;68.31
76239;SHT30;65043;48.392;-4.472;2023-01-19T06:06:21;7.58;68.44
76239;SHT30;65043;48.392;-4.472;2023-01-19T06:08:46;7.59;68.57
76239;SHT30;65043;48.392;-4.472;2023-01-19T06:11:12;7.62;68.22
76239;SHT30;65043;48.392;-4.472;2023-01-19T06:13:38;7.68;68.26
76239;SHT30;65043;48.392;-4.472;2023-01-19T06:16:07;7.72;68.27
76239;SHT30;65043;48.392;-4.472;2023-01-19T06:18:32;7.81;68.40
76239;SHT30;65043;48.392;-4.472;2023-01-19T06:21:02;7.89;68.18
76239;SHT30;65043;48.392;-4.472;2023-01-19T06:23:31;7.93;68.05
76239;SHT30;65043;48.392;-4.472;2023-01-19T06:25:57;7.99;68.20
76239;SHT30;65043;48.392;-4.472;2023-01-19T06:28:23;8.00;67.98
76239;SHT30;65043;48.392;-4.472;2023-01-19T06:30:50;8.02;67.97
76239;SHT30;65043;48.392;-4.472;2023-01-19T06:33:16;7.99;67.95
76239;SHT30;65043;48.392;-4.472;2023-01-19T06:35:43;8.03;68.07
76239;SHT30;65043;48.392;-4.472;2023-01-19T06:38:09;8.03;68.43
76239;SHT30;65043;48.392;-4.472;2023-01-19T06:40:34;8.05;68.51
76239;SHT30;65043;48.392;-4.472;2023-01-19T06:43:00;8.05;68.35
76239;SHT30;65043;48.392;-4.472;2023-01-19T06:45:25;8.12;68.19
76239;SHT30;65043;48.392;-4.472;2023-01-19T06:47:50;8.10;68.04
76239;SHT30;65043;48.392;-4.472;2023-01-19T06:50:16;8.12;68.31
76239;SHT30;65043;48.392;-4.472;2023-01-19T06:52:41;8.13;68.21
76239;SHT30;65043;48.392;-4.472;2023-01-19T06:55:09;8.13;68.15
76239;SHT30;65043;48.392;-4.472;2023-01-19T06:57:36;8.16;68.19
76239;SHT30;65043;48.392;-4.472;2023-01-19T07:00:03;8.17;67.78
76239;SHT30;65043;48.392;-4.472;2023-01-19T07:02:34;8.26;67.23
76239;SHT30;65043;48.392;-4.472;2023-01-19T07:05:00;8.29;67.08
76239;SHT30;65043;48.392;-4.472;2023-01-19T07:07:26;8.27;66.80
76239;SHT30;65043;48.392;-4.472;2023-01-19T07:09:51;8.27;67.12
76239;SHT30;65043;48.392;-4.472;2023-01-19T07:12:17;8.22;67.55
76239;SHT30;65043;48.392;-4.472;2023-01-19T07:14:42;8.19;67.69
76239;SHT30;65043;48.392;-4.472;2023-01-19T07:17:08;8.13;67.99
76239;SHT30;65043;48.392;-4.472;2023-01-19T07:19:33;8.13;68.06
76239;SHT30;65043;48.392;-4.472;2023-01-19T07:22:00;8.09;68.27
76239;SHT30;65043;48.392;-4.472;2023-01-19T07:24:25;8.10;68.18
76239;SHT30;65043;48.392;-4.472;2023-01-19T07:26:51;8.12;68.02
76239;SHT30;65043;48.392;-4.472;2023-01-19T07:29:16;8.13;68.08
76239;SHT30;65043;48.392;-4.472;2023-01-19T07:31:42;8.10;68.29
76239;SHT30;65043;48.392;-4.472;2023-01-19T07:34:07;8.10;68.53
76239;SHT30;65043;48.392;-4.472;2023-01-19T07:36:32;8.09;68.44
76239;SHT30;65043;48.392;-4.472;2023-01-19T07:38:58;8.07;68.32
76239;SHT30;65043;48.392;-4.472;2023-01-19T07:41:23;8.07;68.34
76239;SHT30;65043;48.392;-4.472;2023-01-19T07:43:49;8.06;68.50
76239;SHT30;65043;48.392;-4.472;2023-01-19T07:46:15;8.07;68.54
76239;SHT30;65043;48.392;-4.472;2023-01-19T07:48:41;8.13;68.78
76239;SHT30;65043;48.392;-4.472;2023-01-19T07:51:09;8.17;68.53
76239;SHT30;65043;48.392;-4.472;2023-01-19T07:53:36;8.20;68.56
76239;SHT30;65043;48.392;-4.472;2023-01-19T07:56:02;8.24;68.60
76239;SHT30;65043;48.392;-4.472;2023-01-19T07:58:30;8.27;68.99
76239;SHT30;65043;48.392;-4.472;2023-01-19T08:00:55;8.32;68.56
76239;SHT30;65043;48.392;-4.472;2023-01-19T08:03:21;8.30;68.76
76239;SHT30;65043;48.392;-4.472;2023-01-19T08:05:51;8.29;69.32
76239;SHT30;65043;48.392;-4.472;2023-01-19T08:08:17;8.30;69.04
76239;SHT30;65043;48.392;-4.472;2023-01-19T08:10:43;8.29;69.44
76239;SHT30;65043;48.392;-4.472;2023-01-19T08:13:08;8.30;69.66
76239;SHT30;65043;48.392;-4.472;2023-01-19T08:15:34;8.29;69.43
76239;SHT30;65043;48.392;-4.472;2023-01-19T08:18:03;8.26;69.19
76239;SHT30;65043;48.392;-4.472;2023-01-19T08:20:33;8.26;69.17
76239;SHT30;65043;48.392;-4.472;2023-01-19T08:22:59;8.17;69.42
76239;SHT30;65043;48.392;-4.472;2023-01-19T08:25:36;8.14;69.70
76239;SHT30;65043;48.392;-4.472;2023-01-19T08:28:03;8.12;69.64
76239;SHT30;65043;48.392;-4.472;2023-01-19T08:30:29;8.05;70.10
76239;SHT30;65043;48.392;-4.472;2023-01-19T08:32:55;8.05;71.00
76239;SHT30;65043;48.392;-4.472;2023-01-19T08:35:43;8.03;71.44
76239;SHT30;65043;48.392;-4.472;2023-01-19T08:38:11;8.00;71.62
76239;SHT30;65043;48.392;-4.472;2023-01-19T08:40:38;7.99;72.35
76239;SHT30;65043;48.392;-4.472;2023-01-19T08:43:07;7.96;72.40
76239;SHT30;65043;48.392;-4.472;2023-01-19T08:45:38;7.95;72.72
76239;SHT30;65043;48.392;-4.472;2023-01-19T08:48:10;7.93;72.72
76239;SHT30;65043;48.392;-4.472;2023-01-19T08:50:36;7.95;72.94
76239;SHT30;65043;48.392;-4.472;2023-01-19T08:53:03;7.93;73.24
76239;SHT30;65043;48.392;-4.472;2023-01-19T08:55:33;7.92;73.08
76239;SHT30;65043;48.392;-4.472;2023-01-19T08:57:59;7.95;73.11
76239;SHT30;65043;48.392;-4.472;2023-01-19T09:00:26;7.92;73.22
76239;SHT30;65043;48.392;-4.472;2023-01-19T09:02:52;7.92;73.23
76239;SHT30;65043;48.392;-4.472;2023-01-19T09:05:18;7.93;73.53
76239;SHT30;65043;48.392;-4.472;2023-01-19T09:07:45;7.89;73.39
76239;SHT30;65043;48.392;-4.472;2023-01-19T09:10:12;7.89;73.64
76239;SHT30;65043;48.392;-4.472;2023-01-19T09:12:38;7.87;73.53
76239;SHT30;65043;48.392;-4.472;2023-01-19T09:15:04;7.87;73.50
76239;SHT30;65043;48.392;-4.472;2023-01-19T09:17:29;7.85;73.55
76239;SHT30;65043;48.392;-4.472;2023-01-19T09:19:55;7.83;73.55
76239;SHT30;65043;48.392;-4.472;2023-01-19T09:22:20;7.83;73.61
76239;SHT30;65043;48.392;-4.472;2023-01-19T09:24:46;7.85;73.68
76239;SHT30;65043;48.392;-4.472;2023-01-19T09:27:11;7.85;73.56
76239;SHT30;65043;48.392;-4.472;2023-01-19T09:29:36;7.85;73.71
76239;SHT30;65043;48.392;-4.472;2023-01-19T09:32:02;7.86;73.71
76239;SHT30;65043;48.392;-4.472;2023-01-19T09:34:27;7.83;73.69
76239;SHT30;65043;48.392;-4.472;2023-01-19T09:36:53;7.82;73.56
76239;SHT30;65043;48.392;-4.472;2023-01-19T09:39:18;7.82;73.95
76239;SHT30;65043;48.392;-4.472;2023-01-19T09:42:04;7.81;73.70
76239;SHT30;65043;48.392;-4.472;2023-01-19T09:44:33;7.83;73.74
76239;SHT30;65043;48.392;-4.472;2023-01-19T09:47:12;7.81;73.93
76239;SHT30;65043;48.392;-4.472;2023-01-19T09:49:41;7.79;73.73
76239;SHT30;65043;48.392;-4.472;2023-01-19T09:52:12;7.76;73.30
76239;SHT30;65043;48.392;-4.472;2023-01-19T09:55:16;7.74;73.86
76239;SHT30;65043;48.392;-4.472;2023-01-19T09:57:33;7.72;73.89
76239;SHT30;65043;48.392;-4.472;2023-01-19T09:59:59;7.71;73.78
76239;SHT30;65043;48.392;-4.472;2023-01-19T10:02:43;7.72;73.78
76239;SHT30;65043;48.392;-4.472;2023-01-19T10:10:25;7.69;73.71
76239;SHT30;65043;48.392;-4.472;2023-01-19T10:13:13;7.71;73.77
76239;SHT30;65043;48.392;-4.472;2023-01-19T10:18:48;7.72;73.58
76239;SHT30;65043;48.392;-4.472;2023-01-19T10:23:57;7.69;73.61
76239;SHT30;65043;48.392;-4.472;2023-01-19T10:26:28;7.71;73.50
76239;SHT30;65043;48.392;-4.472;2023-01-19T10:29:05;7.69;73.65
76239;SHT30;65043;48.392;-4.472;2023-01-19T10:31:33;7.69;73.65
76239;SHT30;65043;48.392;-4.472;2023-01-19T10:33:59;7.71;73.61
76239;SHT30;65043;48.392;-4.472;2023-01-19T10:36:30;7.69;73.58
76239;SHT30;65043;48.392;-4.472;2023-01-19T10:38:58;7.68;73.71
76239;SHT30;65043;48.392;-4.472;2023-01-19T10:41:32;7.68;73.81
76239;SHT30;65043;48.392;-4.472;2023-01-19T10:44:01;7.69;74.14
76239;SHT30;65043;48.392;-4.472;2023-01-19T10:49:22;7.65;74.11
76239;SHT30;65043;48.392;-4.472;2023-01-19T10:51:49;7.68;73.97
76239;SHT30;65043;48.392;-4.472;2023-01-19T10:54:15;7.68;74.13
76239;SHT30;65043;48.392;-4.472;2023-01-19T10:56:41;7.66;73.90
76239;SHT30;65043;48.392;-4.472;2023-01-19T10:59:48;7.65;73.81
76239;SHT30;65043;48.392;-4.472;2023-01-19T11:02:27;7.66;73.71
76239;SHT30;65043;48.392;-4.472;2023-01-19T11:04:58;7.69;73.71
76239;SHT30;65043;48.392;-4.472;2023-01-19T11:07:33;7.71;73.63
76239;SHT30;65043;48.392;-4.472;2023-01-19T11:13:03;7.69;73.68
76239;SHT30;65043;48.392;-4.472;2023-01-19T11:15:41;7.75;73.62
76239;SHT30;65043;48.392;-4.472;2023-01-19T11:18:17;7.74;73.53
76239;SHT30;65043;48.392;-4.472;2023-01-19T11:20:49;7.72;73.50
76239;SHT30;65043;48.392;-4.472;2023-01-19T11:23:17;7.74;73.46
76239;SHT30;65043;48.392;-4.472;2023-01-19T11:25:48;7.74;73.43
76239;SHT30;65043;48.392;-4.472;2023-01-19T11:28:26;7.72;73.40
76239;SHT30;65043;48.392;-4.472;2023-01-19T11:31:00;7.72;73.35
76239;SHT30;65043;48.392;-4.472;2023-01-19T11:33:42;7.72;73.19
76239;SHT30;65043;48.392;-4.472;2023-01-19T11:38:45;7.75;73.27
76239;SHT30;65043;48.392;-4.472;2023-01-19T11:41:17;7.72;73.39
76239;SHT30;65043;48.392;-4.472;2023-01-19T11:43:44;7.74;73.43
76239;SHT30;65043;48.392;-4.472;2023-01-19T11:46:11;7.76;73.66
76239;SHT30;65043;48.392;-4.472;2023-01-19T11:48:58;7.78;73.50
76239;SHT30;65043;48.392;-4.472;2023-01-19T11:51:48;7.78;73.48
76239;SHT30;65043;48.392;-4.472;2023-01-19T11:54:22;7.81;73.40
76239;SHT30;65043;48.392;-4.472;2023-01-19T11:56:49;7.79;73.54
76239;SHT30;65043;48.392;-4.472;2023-01-19T11:59:17;7.83;73.33
76239;SHT30;65043;48.392;-4.472;2023-01-19T12:01:51;7.79;73.20
76239;SHT30;65043;48.392;-4.472;2023-01-19T12:04:26;7.76;73.28
76239;SHT30;65043;48.392;-4.472;2023-01-19T12:06:54;7.78;73.59
76239;SHT30;65043;48.392;-4.472;2023-01-19T12:09:22;7.76;73.96
76239;SHT30;65043;48.392;-4.472;2023-01-19T12:12:02;7.74;73.88
76239;SHT30;65043;48.392;-4.472;2023-01-19T12:14:53;7.72;73.73
76239;SHT30;65043;48.392;-4.472;2023-01-19T12:17:32;7.75;73.90
76239;SHT30;65043;48.392;-4.472;2023-01-19T12:20:04;7.71;73.80
76239;SHT30;65043;48.392;-4.472;2023-01-19T12:22:39;7.74;73.91
76239;SHT30;65043;48.392;-4.472;2023-01-19T12:25:19;7.76;73.70
76239;SHT30;65043;48.392;-4.472;2023-01-19T12:27:47;7.75;73.47
76239;SHT30;65043;48.392;-4.472;2023-01-19T12:30:24;7.72;73.58
76239;SHT30;65043;48.392;-4.472;2023-01-19T12:32:51;7.75;73.71
76239;SHT30;65043;48.392;-4.472;2023-01-19T12:38:45;7.78;73.97
76239;SHT30;65043;48.392;-4.472;2023-01-19T12:46:37;7.82;74.05
76239;SHT30;65043;48.392;-4.472;2023-01-19T12:49:25;7.79;74.04
76239;SHT30;65043;48.392;-4.472;2023-01-19T12:52:08;7.79;73.96
76239;SHT30;65043;48.392;-4.472;2023-01-19T12:54:34;7.82;73.87
76239;SHT30;65043;48.392;-4.472;2023-01-19T12:57:16;7.85;73.92
76239;SHT30;65043;48.392;-4.472;2023-01-19T12:59:42;7.87;73.97
76239;SHT30;65043;48.392;-4.472;2023-01-19T13:08:26;7.90;73.27
76239;SHT30;65043;48.392;-4.472;2023-01-19T13:13:25;8.00;73.35
76239;SHT30;65043;48.392;-4.472;2023-01-19T13:15:52;8.05;73.11
76239;SHT30;65043;48.392;-4.472;2023-01-19T13:18:31;8.10;72.87
76239;SHT30;65043;48.392;-4.472;2023-01-19T13:21:03;8.14;72.68
76239;SHT30;65043;48.392;-4.472;2023-01-19T13:26:20;8.20;72.58
76239;SHT30;65043;48.392;-4.472;2023-01-19T13:29:09;8.23;72.43
76239;SHT30;65043;48.392;-4.472;2023-01-19T13:31:37;8.24;72.39
76239;SHT30;65043;48.392;-4.472;2023-01-19T13:34:10;8.24;72.11
76239;SHT30;65043;48.392;-4.472;2023-01-19T13:36:39;8.30;72.12
76239;SHT30;65043;48.392;-4.472;2023-01-19T13:39:35;8.36;72.01
76239;SHT30;65043;48.392;-4.472;2023-01-19T13:42:12;8.43;71.72
76239;SHT30;65043;48.392;-4.472;2023-01-19T13:44:58;8.48;71.79
76239;SHT30;65043;48.392;-4.472;2023-01-19T13:47:45;8.57;71.40
76239;SHT30;65043;48.392;-4.472;2023-01-19T13:50:24;8.69;71.35
76239;SHT30;65043;48.392;-4.472;2023-01-19T13:52:50;8.79;70.85
76239;SHT30;65043;48.392;-4.472;2023-01-19T13:55:22;8.93;70.52
76239;SHT30;65043;48.392;-4.472;2023-01-19T13:57:49;9.02;70.38
76239;SHT30;65043;48.392;-4.472;2023-01-19T14:08:10;9.20;69.32
76239;SHT30;65043;48.392;-4.472;2023-01-19T14:13:19;9.23;69.55
76239;SHT30;65043;48.392;-4.472;2023-01-19T14:15:48;9.30;69.38
76239;SHT30;65043;48.392;-4.472;2023-01-19T14:26:04;9.44;68.90
76239;SHT30;65043;48.392;-4.472;2023-01-19T14:28:35;9.47;68.47
76239;SHT30;65043;48.392;-4.472;2023-01-19T14:31:20;9.44;68.49
76239;SHT30;65043;48.392;-4.472;2023-01-19T14:33:50;9.44;68.56
76239;SHT30;65043;48.392;-4.472;2023-01-19T14:36:25;9.44;68.40
76239;SHT30;65043;48.392;-4.472;2023-01-19T14:38:52;9.47;68.24
76239;SHT30;65043;48.392;-4.472;2023-01-19T14:41:36;9.44;68.44
76239;SHT30;65043;48.392;-4.472;2023-01-19T14:44:07;9.40;68.47
76239;SHT30;65043;48.392;-4.472;2023-01-19T14:46:34;9.39;68.60
76239;SHT30;65043;48.392;-4.472;2023-01-19T14:49:02;9.40;68.77
76239;SHT30;65043;48.392;-4.472;2023-01-19T14:51:29;9.42;68.15
76239;SHT30;65043;48.392;-4.472;2023-01-19T14:53:57;9.42;68.03
76239;SHT30;65043;48.392;-4.472;2023-01-19T14:56:30;9.33;68.27
76239;SHT30;65043;48.392;-4.472;2023-01-19T14:58:57;9.30;68.31
76239;SHT30;65043;48.392;-4.472;2023-01-19T15:01:25;9.25;68.51
76239;SHT30;65043;48.392;-4.472;2023-01-19T15:03:53;9.29;68.69
76239;SHT30;65043;48.392;-4.472;2023-01-19T15:06:21;9.33;68.11
76239;SHT30;65043;48.392;-4.472;2023-01-19T15:08:47;9.37;68.03
76239;SHT30;65043;48.392;-4.472;2023-01-19T15:11:30;9.39;68.38
76239;SHT30;65043;48.392;-4.472;2023-01-19T15:13:56;9.40;68.30
76239;SHT30;65043;48.392;-4.472;2023-01-19T15:16:23;9.44;68.40
76239;SHT30;65043;48.392;-4.472;2023-01-19T15:18:50;9.36;68.09
76239;SHT30;65043;48.392;-4.472;2023-01-19T15:21:17;9.25;67.71
76239;SHT30;65043;48.392;-4.472;2023-01-19T15:23:48;9.12;68.49
76239;SHT30;65043;48.392;-4.472;2023-01-19T15:26:18;9.04;68.78
76239;SHT30;65043;48.392;-4.472;2023-01-19T15:28:45;9.02;68.88
76239;SHT30;65043;48.392;-4.472;2023-01-19T15:31:15;9.02;69.18
76239;SHT30;65043;48.392;-4.472;2023-01-19T15:33:41;9.01;69.36
76239;SHT30;65043;48.392;-4.472;2023-01-19T15:36:15;8.98;69.12
76239;SHT30;65043;48.392;-4.472;2023-01-19T15:38:40;8.96;68.97
76239;SHT30;65043;48.392;-4.472;2023-01-19T15:41:14;8.93;68.75
76239;SHT30;65043;48.392;-4.472;2023-01-19T15:43:40;8.95;68.80
76239;SHT30;65043;48.392;-4.472;2023-01-19T15:46:06;8.91;69.13
76239;SHT30;65043;48.392;-4.472;2023-01-19T15:48:32;8.86;69.32
76239;SHT30;65043;48.392;-4.472;2023-01-19T15:50:58;8.85;69.21
76239;SHT30;65043;48.392;-4.472;2023-01-19T15:53:23;8.86;68.74
76239;SHT30;65043;48.392;-4.472;2023-01-19T15:55:51;8.81;68.96
76239;SHT30;65043;48.392;-4.472;2023-01-19T15:58:19;8.79;68.59
76239;SHT30;65043;48.392;-4.472;2023-01-19T16:00:51;8.72;68.78
76239;SHT30;65043;48.392;-4.472;2023-01-19T16:03:17;8.65;69.11
76239;SHT30;65043;48.392;-4.472;2023-01-19T16:05:42;8.61;69.19
76239;SHT30;65043;48.392;-4.472;2023-01-19T16:08:09;8.58;69.59
76239;SHT30;65043;48.392;-4.472;2023-01-19T16:10:34;8.55;69.61
76239;SHT30;65043;48.392;-4.472;2023-01-19T16:13:00;8.51;69.92
76239;SHT30;65043;48.392;-4.472;2023-01-19T16:15:25;8.48;69.84
76239;SHT30;65043;48.392;-4.472;2023-01-19T16:17:51;8.48;69.94
76239;SHT30;65043;48.392;-4.472;2023-01-19T16:20:17;8.44;69.96
76239;SHT30;65043;48.392;-4.472;2023-01-19T16:22:42;8.43;70.36
76239;SHT30;65043;48.392;-4.472;2023-01-19T16:25:08;8.38;70.40
76239;SHT30;65043;48.392;-4.472;2023-01-19T16:27:34;8.36;70.27
76239;SHT30;65043;48.392;-4.472;2023-01-19T16:29:59;8.33;70.24
76239;SHT30;65043;48.392;-4.472;2023-01-19T16:32:32;8.30;70.37
76239;SHT30;65043;48.392;-4.472;2023-01-19T16:34:58;8.24;70.06
76239;SHT30;65043;48.392;-4.472;2023-01-19T16:37:24;8.22;70.10
76239;SHT30;65043;48.392;-4.472;2023-01-19T16:39:49;8.19;70.15
76239;SHT30;65043;48.392;-4.472;2023-01-19T16:42:15;8.14;70.66
76239;SHT30;65043;48.392;-4.472;2023-01-19T16:44:41;8.14;70.54
76239;SHT30;65043;48.392;-4.472;2023-01-19T16:47:07;8.10;70.54
76239;SHT30;65043;48.392;-4.472;2023-01-19T16:49:33;8.06;70.82